sensor_id;sensor_type;location;lat;lon;timestamp;P1;durP1;ratioP1;P2;durP2;ratioP2
35225;SDS011;21813;49.686;21.766;2023-02-28T00:00:54;35.67;;;16.67;;
35225;SDS011;21813;49.686;21.766;2023-02-28T00:04:19;32.65;;;15.77;;
35225;SDS011;21813;49.686;21.766;2023-02-28T00:07:09;29.42;;;14.52;;
35225;SDS011;21813;49.686;21.766;2023-02-28T00:09:58;38.90;;;15.88;;
35225;SDS011;21813;49.686;21.766;2023-02-28T00:15:24;35.10;;;17.27;;
35225;SDS011;21813;49.686;21.766;2023-02-28T00:17:55;37.15;;;16.65;;
35225;SDS011;21813;49.686;21.766;2023-02-28T00:20:21;33.95;;;16.27;;
35225;SDS011;21813;49.686;21.766;2023-02-28T00:22:53;34.45;;;15.82;;
35225;SDS011;21813;49.686;21.766;2023-02-28T00:28:47;28.85;;;14.23;;
35225;SDS011;21813;49.686;21.766;2023-02-28T00:35:05;32.30;;;14.52;;
35225;SDS011;21813;49.686;21.766;2023-02-28T00:37:46;32.60;;;15.48;;
35225;SDS011;21813;49.686;21.766;2023-02-28T00:40:29;26.25;;;13.18;;
35225;SDS011;21813;49.686;21.766;2023-02-28T00:42:55;29.65;;;14.18;;
35225;SDS011;21813;49.686;21.766;2023-02-28T00:45:43;32.15;;;15.55;;
35225;SDS011;21813;49.686;21.766;2023-02-28T00:48:21;32.35;;;15.48;;
35225;SDS011;21813;49.686;21.766;2023-02-28T00:50:50;25.90;;;13.93;;
35225;SDS011;21813;49.686;21.766;2023-02-28T00:53:25;33.25;;;15.00;;
35225;SDS011;21813;49.686;21.766;2023-02-28T00:56:09;35.35;;;14.45;;
35225;SDS011;21813;49.686;21.766;2023-02-28T00:58:35;33.65;;;14.98;;
35225;SDS011;21813;49.686;21.766;2023-02-28T01:01:01;25.45;;;13.98;;
35225;SDS011;21813;49.686;21.766;2023-02-28T01:03:30;26.50;;;12.43;;
35225;SDS011;21813;49.686;21.766;2023-02-28T01:06:14;27.48;;;13.45;;
35225;SDS011;21813;49.686;21.766;2023-02-28T01:08:44;24.30;;;12.30;;
35225;SDS011;21813;49.686;21.766;2023-02-28T01:11:26;32.42;;;13.88;;
35225;SDS011;21813;49.686;21.766;2023-02-28T01:13:56;30.27;;;13.80;;
35225;SDS011;21813;49.686;21.766;2023-02-28T01:16:39;32.08;;;14.50;;
35225;SDS011;21813;49.686;21.766;2023-02-28T01:22:27;27.15;;;13.15;;
35225;SDS011;21813;49.686;21.766;2023-02-28T01:25:30;25.92;;;14.57;;
35225;SDS011;21813;49.686;21.766;2023-02-28T01:28:01;31.50;;;14.65;;
35225;SDS011;21813;49.686;21.766;2023-02-28T01:30:37;30.80;;;16.08;;
35225;SDS011;21813;49.686;21.766;2023-02-28T01:36:03;29.15;;;14.70;;
35225;SDS011;21813;49.686;21.766;2023-02-28T01:38:36;36.72;;;15.68;;
35225;SDS011;21813;49.686;21.766;2023-02-28T01:41:03;34.97;;;16.23;;
35225;SDS011;21813;49.686;21.766;2023-02-28T01:43:31;30.45;;;15.05;;
35225;SDS011;21813;49.686;21.766;2023-02-28T01:46:24;32.17;;;15.27;;
35225;SDS011;21813;49.686;21.766;2023-02-28T01:49:14;33.92;;;14.82;;
35225;SDS011;21813;49.686;21.766;2023-02-28T01:51:59;30.23;;;14.82;;
35225;SDS011;21813;49.686;21.766;2023-02-28T01:55:09;34.42;;;14.95;;
35225;SDS011;21813;49.686;21.766;2023-02-28T01:57:43;33.67;;;16.40;;
35225;SDS011;21813;49.686;21.766;2023-02-28T02:00:17;32.83;;;15.18;;
35225;SDS011;21813;49.686;21.766;2023-02-28T02:03:06;29.05;;;14.65;;
35225;SDS011;21813;49.686;21.766;2023-02-28T02:05:36;35.10;;;15.57;;
35225;SDS011;21813;49.686;21.766;2023-02-28T02:08:39;40.60;;;17.05;;
35225;SDS011;21813;49.686;21.766;2023-02-28T02:11:21;42.05;;;18.88;;
35225;SDS011;21813;49.686;21.766;2023-02-28T02:20:02;35.88;;;16.67;;
35225;SDS011;21813;49.686;21.766;2023-02-28T02:36:07;28.42;;;13.27;;
35225;SDS011;21813;49.686;21.766;2023-02-28T02:38:52;29.95;;;14.55;;
35225;SDS011;21813;49.686;21.766;2023-02-28T02:41:39;27.88;;;13.75;;
35225;SDS011;21813;49.686;21.766;2023-02-28T02:44:15;28.95;;;13.88;;
35225;SDS011;21813;49.686;21.766;2023-02-28T02:47:08;29.73;;;13.85;;
35225;SDS011;21813;49.686;21.766;2023-02-28T02:49:39;30.27;;;14.45;;
35225;SDS011;21813;49.686;21.766;2023-02-28T02:52:19;26.75;;;13.43;;
35225;SDS011;21813;49.686;21.766;2023-02-28T02:55:20;30.77;;;14.48;;
35225;SDS011;21813;49.686;21.766;2023-02-28T02:57:57;33.10;;;14.50;;
35225;SDS011;21813;49.686;21.766;2023-02-28T03:00:28;29.92;;;14.10;;
35225;SDS011;21813;49.686;21.766;2023-02-28T03:06:07;36.65;;;18.17;;
35225;SDS011;21813;49.686;21.766;2023-02-28T03:08:36;36.95;;;17.38;;
35225;SDS011;21813;49.686;21.766;2023-02-28T03:11:05;32.22;;;15.77;;
35225;SDS011;21813;49.686;21.766;2023-02-28T03:19:17;32.53;;;15.52;;
35225;SDS011;21813;49.686;21.766;2023-02-28T03:31:23;31.85;;;14.75;;
35225;SDS011;21813;49.686;21.766;2023-02-28T03:42:23;30.90;;;15.02;;
35225;SDS011;21813;49.686;21.766;2023-02-28T03:47:42;31.30;;;14.27;;
35225;SDS011;21813;49.686;21.766;2023-02-28T03:50:43;27.50;;;13.68;;
35225;SDS011;21813;49.686;21.766;2023-02-28T03:53:14;34.85;;;16.13;;
35225;SDS011;21813;49.686;21.766;2023-02-28T04:02:44;40.92;;;16.88;;
35225;SDS011;21813;49.686;21.766;2023-02-28T04:05:28;33.67;;;15.35;;
35225;SDS011;21813;49.686;21.766;2023-02-28T04:08:51;32.38;;;15.77;;
35225;SDS011;21813;49.686;21.766;2023-02-28T04:14:25;31.50;;;16.00;;
35225;SDS011;21813;49.686;21.766;2023-02-28T04:20:05;47.40;;;19.42;;
35225;SDS011;21813;49.686;21.766;2023-02-28T04:22:55;59.90;;;28.90;;
35225;SDS011;21813;49.686;21.766;2023-02-28T04:25:24;43.72;;;20.88;;
35225;SDS011;21813;49.686;21.766;2023-02-28T04:27:50;42.60;;;20.58;;
35225;SDS011;21813;49.686;21.766;2023-02-28T04:30:19;43.10;;;19.25;;
35225;SDS011;21813;49.686;21.766;2023-02-28T04:32:45;41.50;;;20.30;;
35225;SDS011;21813;49.686;21.766;2023-02-28T04:35:12;45.75;;;21.92;;
35225;SDS011;21813;49.686;21.766;2023-02-28T04:37:38;44.28;;;23.52;;
35225;SDS011;21813;49.686;21.766;2023-02-28T04:40:11;45.30;;;23.13;;
35225;SDS011;21813;49.686;21.766;2023-02-28T04:42:37;45.75;;;23.35;;
35225;SDS011;21813;49.686;21.766;2023-02-28T04:45:07;43.08;;;21.85;;
35225;SDS011;21813;49.686;21.766;2023-02-28T04:50:55;44.38;;;21.83;;
35225;SDS011;21813;49.686;21.766;2023-02-28T04:53:34;43.28;;;20.60;;
35225;SDS011;21813;49.686;21.766;2023-02-28T04:56:07;45.00;;;21.90;;
35225;SDS011;21813;49.686;21.766;2023-02-28T04:58:37;53.92;;;22.55;;
35225;SDS011;21813;49.686;21.766;2023-02-28T05:01:07;49.13;;;22.75;;
35225;SDS011;21813;49.686;21.766;2023-02-28T05:04:11;41.13;;;19.02;;
35225;SDS011;21813;49.686;21.766;2023-02-28T05:06:37;46.47;;;20.58;;
35225;SDS011;21813;49.686;21.766;2023-02-28T05:09:09;43.40;;;19.95;;
35225;SDS011;21813;49.686;21.766;2023-02-28T05:11:55;44.75;;;21.33;;
35225;SDS011;21813;49.686;21.766;2023-02-28T05:14:50;40.53;;;19.35;;
35225;SDS011;21813;49.686;21.766;2023-02-28T05:17:19;42.92;;;21.05;;
35225;SDS011;21813;49.686;21.766;2023-02-28T05:19:47;42.42;;;19.63;;
35225;SDS011;21813;49.686;21.766;2023-02-28T05:22:15;42.67;;;19.50;;
35225;SDS011;21813;49.686;21.766;2023-02-28T05:24:43;38.28;;;17.33;;
35225;SDS011;21813;49.686;21.766;2023-02-28T05:27:17;37.20;;;18.35;;
35225;SDS011;21813;49.686;21.766;2023-02-28T05:29:48;35.97;;;19.33;;
35225;SDS011;21813;49.686;21.766;2023-02-28T05:32:14;46.45;;;18.95;;
35225;SDS011;21813;49.686;21.766;2023-02-28T05:34:57;35.90;;;17.40;;
35225;SDS011;21813;49.686;21.766;2023-02-28T05:38:14;30.70;;;14.40;;
35225;SDS011;21813;49.686;21.766;2023-02-28T05:40:45;31.37;;;14.70;;
35225;SDS011;21813;49.686;21.766;2023-02-28T05:43:23;34.15;;;15.15;;
35225;SDS011;21813;49.686;21.766;2023-02-28T05:46:25;34.97;;;16.13;;
35225;SDS011;21813;49.686;21.766;2023-02-28T05:49:29;27.73;;;14.25;;
35225;SDS011;21813;49.686;21.766;2023-02-28T05:51:57;39.95;;;16.83;;
35225;SDS011;21813;49.686;21.766;2023-02-28T05:57:27;28.83;;;13.93;;
35225;SDS011;21813;49.686;21.766;2023-02-28T06:00:05;28.55;;;14.90;;
35225;SDS011;21813;49.686;21.766;2023-02-28T06:03:13;28.63;;;14.07;;
35225;SDS011;21813;49.686;21.766;2023-02-28T06:06:25;23.73;;;13.25;;
35225;SDS011;21813;49.686;21.766;2023-02-28T06:09:35;26.65;;;13.38;;
35225;SDS011;21813;49.686;21.766;2023-02-28T06:12:09;30.15;;;13.90;;
35225;SDS011;21813;49.686;21.766;2023-02-28T06:14:40;30.25;;;14.95;;
35225;SDS011;21813;49.686;21.766;2023-02-28T06:17:06;26.08;;;13.65;;
35225;SDS011;21813;49.686;21.766;2023-02-28T06:19:37;22.38;;;12.95;;
35225;SDS011;21813;49.686;21.766;2023-02-28T06:22:15;30.65;;;13.98;;
35225;SDS011;21813;49.686;21.766;2023-02-28T06:25:10;27.70;;;13.20;;
35225;SDS011;21813;49.686;21.766;2023-02-28T06:27:44;28.38;;;13.85;;
35225;SDS011;21813;49.686;21.766;2023-02-28T06:30:10;23.45;;;12.85;;
35225;SDS011;21813;49.686;21.766;2023-02-28T06:32:40;24.02;;;13.88;;
35225;SDS011;21813;49.686;21.766;2023-02-28T06:35:06;27.55;;;15.07;;
35225;SDS011;21813;49.686;21.766;2023-02-28T06:37:33;28.23;;;15.15;;
35225;SDS011;21813;49.686;21.766;2023-02-28T06:39:59;30.23;;;16.38;;
35225;SDS011;21813;49.686;21.766;2023-02-28T06:42:27;27.92;;;15.55;;
35225;SDS011;21813;49.686;21.766;2023-02-28T06:44:54;26.63;;;15.23;;
35225;SDS011;21813;49.686;21.766;2023-02-28T06:47:21;28.80;;;14.65;;
35225;SDS011;21813;49.686;21.766;2023-02-28T06:49:47;28.10;;;14.88;;
35225;SDS011;21813;49.686;21.766;2023-02-28T06:52:15;31.55;;;15.27;;
35225;SDS011;21813;49.686;21.766;2023-02-28T06:54:41;26.65;;;14.95;;
35225;SDS011;21813;49.686;21.766;2023-02-28T06:57:12;28.70;;;14.98;;
35225;SDS011;21813;49.686;21.766;2023-02-28T06:59:38;29.80;;;14.65;;
35225;SDS011;21813;49.686;21.766;2023-02-28T07:02:07;24.80;;;14.15;;
35225;SDS011;21813;49.686;21.766;2023-02-28T07:04:36;29.08;;;14.05;;
35225;SDS011;21813;49.686;21.766;2023-02-28T07:07:04;27.45;;;14.25;;
35225;SDS011;21813;49.686;21.766;2023-02-28T07:09:29;29.08;;;14.82;;
35225;SDS011;21813;49.686;21.766;2023-02-28T07:11:57;26.77;;;15.23;;
35225;SDS011;21813;49.686;21.766;2023-02-28T07:14:23;28.77;;;14.32;;
35225;SDS011;21813;49.686;21.766;2023-02-28T07:16:49;23.15;;;12.52;;
35225;SDS011;21813;49.686;21.766;2023-02-28T07:19:15;24.70;;;13.00;;
35225;SDS011;21813;49.686;21.766;2023-02-28T07:21:41;23.50;;;12.23;;
35225;SDS011;21813;49.686;21.766;2023-02-28T07:24:07;18.75;;;10.85;;
35225;SDS011;21813;49.686;21.766;2023-02-28T07:26:34;25.70;;;14.48;;
35225;SDS011;21813;49.686;21.766;2023-02-28T07:29:01;24.00;;;13.57;;
35225;SDS011;21813;49.686;21.766;2023-02-28T07:31:29;26.95;;;13.55;;
35225;SDS011;21813;49.686;21.766;2023-02-28T07:33:54;29.38;;;13.00;;
35225;SDS011;21813;49.686;21.766;2023-02-28T07:36:22;28.00;;;14.10;;
35225;SDS011;21813;49.686;21.766;2023-02-28T07:38:48;26.58;;;13.68;;
35225;SDS011;21813;49.686;21.766;2023-02-28T07:41:16;24.60;;;13.23;;
35225;SDS011;21813;49.686;21.766;2023-02-28T07:43:43;23.10;;;13.77;;
35225;SDS011;21813;49.686;21.766;2023-02-28T07:46:12;23.15;;;13.38;;
35225;SDS011;21813;49.686;21.766;2023-02-28T07:48:40;22.90;;;11.85;;
35225;SDS011;21813;49.686;21.766;2023-02-28T07:51:07;25.30;;;12.85;;
35225;SDS011;21813;49.686;21.766;2023-02-28T07:53:32;23.88;;;11.07;;
35225;SDS011;21813;49.686;21.766;2023-02-28T07:56:00;25.83;;;13.18;;
35225;SDS011;21813;49.686;21.766;2023-02-28T07:58:28;22.50;;;13.00;;
35225;SDS011;21813;49.686;21.766;2023-02-28T08:00:56;24.20;;;13.00;;
35225;SDS011;21813;49.686;21.766;2023-02-28T08:03:22;24.00;;;12.30;;
35225;SDS011;21813;49.686;21.766;2023-02-28T08:05:49;23.05;;;13.15;;
35225;SDS011;21813;49.686;21.766;2023-02-28T08:08:19;28.55;;;14.13;;
35225;SDS011;21813;49.686;21.766;2023-02-28T08:10:44;22.85;;;13.60;;
35225;SDS011;21813;49.686;21.766;2023-02-28T08:13:11;26.45;;;14.65;;
35225;SDS011;21813;49.686;21.766;2023-02-28T08:15:37;30.13;;;15.10;;
35225;SDS011;21813;49.686;21.766;2023-02-28T08:18:05;22.58;;;13.63;;
35225;SDS011;21813;49.686;21.766;2023-02-28T08:20:30;24.23;;;13.25;;
35225;SDS011;21813;49.686;21.766;2023-02-28T08:22:57;27.00;;;15.18;;
35225;SDS011;21813;49.686;21.766;2023-02-28T08:25:23;28.60;;;15.00;;
35225;SDS011;21813;49.686;21.766;2023-02-28T08:27:51;24.50;;;14.45;;
35225;SDS011;21813;49.686;21.766;2023-02-28T08:34:18;22.88;;;12.48;;
35225;SDS011;21813;49.686;21.766;2023-02-28T08:36:45;25.00;;;13.88;;
35225;SDS011;21813;49.686;21.766;2023-02-28T08:39:11;34.05;;;13.30;;
35225;SDS011;21813;49.686;21.766;2023-02-28T08:41:38;28.15;;;14.85;;
35225;SDS011;21813;49.686;21.766;2023-02-28T08:44:03;31.05;;;16.13;;
35225;SDS011;21813;49.686;21.766;2023-02-28T08:46:30;25.83;;;13.73;;
35225;SDS011;21813;49.686;21.766;2023-02-28T08:48:56;30.25;;;14.60;;
35225;SDS011;21813;49.686;21.766;2023-02-28T08:51:27;28.83;;;15.43;;
35225;SDS011;21813;49.686;21.766;2023-02-28T08:53:54;27.10;;;15.43;;
35225;SDS011;21813;49.686;21.766;2023-02-28T08:56:22;25.25;;;14.45;;
35225;SDS011;21813;49.686;21.766;2023-02-28T08:58:48;24.63;;;14.00;;
35225;SDS011;21813;49.686;21.766;2023-02-28T09:01:16;23.35;;;12.63;;
35225;SDS011;21813;49.686;21.766;2023-02-28T09:04:01;26.65;;;12.98;;
35225;SDS011;21813;49.686;21.766;2023-02-28T09:06:29;22.30;;;12.45;;
35225;SDS011;21813;49.686;21.766;2023-02-28T09:08:58;25.48;;;13.60;;
35225;SDS011;21813;49.686;21.766;2023-02-28T09:15:10;25.60;;;13.55;;
35225;SDS011;21813;49.686;21.766;2023-02-28T09:17:38;22.40;;;12.10;;
35225;SDS011;21813;49.686;21.766;2023-02-28T09:20:04;18.70;;;10.85;;
35225;SDS011;21813;49.686;21.766;2023-02-28T09:22:35;22.83;;;11.13;;
35225;SDS011;21813;49.686;21.766;2023-02-28T09:25:00;20.88;;;11.45;;
35225;SDS011;21813;49.686;21.766;2023-02-28T09:27:27;24.73;;;12.27;;
35225;SDS011;21813;49.686;21.766;2023-02-28T09:29:53;20.58;;;11.93;;
35225;SDS011;21813;49.686;21.766;2023-02-28T09:32:21;21.85;;;13.52;;
35225;SDS011;21813;49.686;21.766;2023-02-28T09:34:46;22.15;;;12.52;;
35225;SDS011;21813;49.686;21.766;2023-02-28T09:37:14;19.95;;;11.70;;
35225;SDS011;21813;49.686;21.766;2023-02-28T09:39:40;22.60;;;12.00;;
35225;SDS011;21813;49.686;21.766;2023-02-28T09:42:11;19.65;;;12.55;;
35225;SDS011;21813;49.686;21.766;2023-02-28T09:44:46;19.85;;;11.77;;
35225;SDS011;21813;49.686;21.766;2023-02-28T09:52:49;25.40;;;13.20;;
35225;SDS011;21813;49.686;21.766;2023-02-28T09:55:31;25.05;;;12.60;;
35225;SDS011;21813;49.686;21.766;2023-02-28T09:58:02;21.38;;;11.95;;
35225;SDS011;21813;49.686;21.766;2023-02-28T10:00:32;22.77;;;12.00;;
35225;SDS011;21813;49.686;21.766;2023-02-28T10:08:27;22.30;;;12.82;;
35225;SDS011;21813;49.686;21.766;2023-02-28T10:11:02;30.00;;;12.93;;
35225;SDS011;21813;49.686;21.766;2023-02-28T10:16:35;26.20;;;12.95;;
35225;SDS011;21813;49.686;21.766;2023-02-28T10:19:03;21.98;;;11.50;;
35225;SDS011;21813;49.686;21.766;2023-02-28T10:21:36;23.48;;;12.05;;
35225;SDS011;21813;49.686;21.766;2023-02-28T10:27:01;21.80;;;12.02;;
35225;SDS011;21813;49.686;21.766;2023-02-28T10:29:38;20.33;;;10.52;;
35225;SDS011;21813;49.686;21.766;2023-02-28T10:32:08;21.30;;;10.65;;
35225;SDS011;21813;49.686;21.766;2023-02-28T10:34:38;21.40;;;11.80;;
35225;SDS011;21813;49.686;21.766;2023-02-28T10:37:04;20.52;;;11.30;;
35225;SDS011;21813;49.686;21.766;2023-02-28T10:39:36;21.13;;;11.20;;
35225;SDS011;21813;49.686;21.766;2023-02-28T10:42:20;25.95;;;12.00;;
35225;SDS011;21813;49.686;21.766;2023-02-28T10:47:39;24.02;;;11.05;;
35225;SDS011;21813;49.686;21.766;2023-02-28T10:53:07;21.67;;;12.57;;
35225;SDS011;21813;49.686;21.766;2023-02-28T10:55:41;21.45;;;11.05;;
35225;SDS011;21813;49.686;21.766;2023-02-28T10:58:19;20.60;;;10.85;;
35225;SDS011;21813;49.686;21.766;2023-02-28T11:00:46;22.50;;;12.32;;
35225;SDS011;21813;49.686;21.766;2023-02-28T11:03:28;22.25;;;11.32;;
35225;SDS011;21813;49.686;21.766;2023-02-28T11:06:03;22.63;;;11.85;;
35225;SDS011;21813;49.686;21.766;2023-02-28T11:08:32;24.13;;;12.93;;
35225;SDS011;21813;49.686;21.766;2023-02-28T11:10:58;22.08;;;11.15;;
35225;SDS011;21813;49.686;21.766;2023-02-28T11:13:33;20.27;;;11.20;;
35225;SDS011;21813;49.686;21.766;2023-02-28T11:16:07;18.50;;;11.30;;
35225;SDS011;21813;49.686;21.766;2023-02-28T11:18:42;23.13;;;11.18;;
35225;SDS011;21813;49.686;21.766;2023-02-28T11:23:51;20.75;;;11.00;;
35225;SDS011;21813;49.686;21.766;2023-02-28T11:26:42;23.20;;;12.07;;
35225;SDS011;21813;49.686;21.766;2023-02-28T11:29:21;21.60;;;12.43;;
35225;SDS011;21813;49.686;21.766;2023-02-28T11:34:36;23.50;;;11.55;;
35225;SDS011;21813;49.686;21.766;2023-02-28T11:37:02;21.65;;;12.05;;
35225;SDS011;21813;49.686;21.766;2023-02-28T11:39:31;18.50;;;11.30;;
35225;SDS011;21813;49.686;21.766;2023-02-28T11:56:32;22.48;;;12.40;;
35225;SDS011;21813;49.686;21.766;2023-02-28T12:02:20;25.35;;;13.20;;
35225;SDS011;21813;49.686;21.766;2023-02-28T12:13:28;24.60;;;13.20;;
35225;SDS011;21813;49.686;21.766;2023-02-28T12:27:14;19.02;;;10.85;;
35225;SDS011;21813;49.686;21.766;2023-02-28T12:29:47;23.77;;;12.52;;
35225;SDS011;21813;49.686;21.766;2023-02-28T12:32:27;25.38;;;13.13;;
35225;SDS011;21813;49.686;21.766;2023-02-28T12:37:31;22.02;;;12.55;;
35225;SDS011;21813;49.686;21.766;2023-02-28T12:40:13;19.75;;;12.73;;
35225;SDS011;21813;49.686;21.766;2023-02-28T12:43:03;23.48;;;12.50;;
35225;SDS011;21813;49.686;21.766;2023-02-28T12:48:14;22.02;;;12.90;;
35225;SDS011;21813;49.686;21.766;2023-02-28T12:50:45;26.38;;;15.00;;
35225;SDS011;21813;49.686;21.766;2023-02-28T13:01:05;22.20;;;13.50;;
35225;SDS011;21813;49.686;21.766;2023-02-28T13:09:25;28.55;;;14.32;;
35225;SDS011;21813;49.686;21.766;2023-02-28T13:11:52;21.92;;;13.27;;
35225;SDS011;21813;49.686;21.766;2023-02-28T13:17:02;24.77;;;13.65;;
35225;SDS011;21813;49.686;21.766;2023-02-28T13:22:18;21.45;;;12.52;;
35225;SDS011;21813;49.686;21.766;2023-02-28T13:24:55;25.98;;;14.57;;
35225;SDS011;21813;49.686;21.766;2023-02-28T13:29:52;21.35;;;12.05;;
35225;SDS011;21813;49.686;21.766;2023-02-28T13:39:52;22.23;;;12.15;;
35225;SDS011;21813;49.686;21.766;2023-02-28T13:42:46;24.70;;;12.57;;
35225;SDS011;21813;49.686;21.766;2023-02-28T13:45:23;25.60;;;13.07;;
35225;SDS011;21813;49.686;21.766;2023-02-28T13:47:51;22.88;;;13.43;;
35225;SDS011;21813;49.686;21.766;2023-02-28T13:58:59;19.58;;;11.23;;
35225;SDS011;21813;49.686;21.766;2023-02-28T14:01:51;22.95;;;11.55;;
35225;SDS011;21813;49.686;21.766;2023-02-28T14:07:01;27.23;;;12.70;;
35225;SDS011;21813;49.686;21.766;2023-02-28T14:09:31;20.17;;;11.00;;
35225;SDS011;21813;49.686;21.766;2023-02-28T14:15:18;15.90;;;9.52;;
35225;SDS011;21813;49.686;21.766;2023-02-28T14:17:55;16.70;;;9.68;;
35225;SDS011;21813;49.686;21.766;2023-02-28T14:20:24;13.93;;;7.68;;
35225;SDS011;21813;49.686;21.766;2023-02-28T14:23:13;15.27;;;8.90;;
35225;SDS011;21813;49.686;21.766;2023-02-28T14:31:29;18.20;;;9.90;;
35225;SDS011;21813;49.686;21.766;2023-02-28T14:36:47;17.80;;;10.95;;
35225;SDS011;21813;49.686;21.766;2023-02-28T14:39:21;18.63;;;10.70;;
35225;SDS011;21813;49.686;21.766;2023-02-28T14:41:49;17.63;;;10.25;;
35225;SDS011;21813;49.686;21.766;2023-02-28T14:44:32;18.40;;;10.98;;
35225;SDS011;21813;49.686;21.766;2023-02-28T14:46:58;21.48;;;11.30;;
35225;SDS011;21813;49.686;21.766;2023-02-28T14:49:42;23.08;;;12.35;;
35225;SDS011;21813;49.686;21.766;2023-02-28T14:55:34;17.27;;;10.40;;
35225;SDS011;21813;49.686;21.766;2023-02-28T14:58:01;17.83;;;10.27;;
35225;SDS011;21813;49.686;21.766;2023-02-28T15:00:50;17.65;;;10.77;;
35225;SDS011;21813;49.686;21.766;2023-02-28T15:05:59;15.75;;;9.52;;
35225;SDS011;21813;49.686;21.766;2023-02-28T15:08:27;21.48;;;12.18;;
35225;SDS011;21813;49.686;21.766;2023-02-28T15:10:57;17.60;;;10.75;;
35225;SDS011;21813;49.686;21.766;2023-02-28T15:13:36;20.25;;;11.20;;
35225;SDS011;21813;49.686;21.766;2023-02-28T15:16:10;17.50;;;10.48;;
35225;SDS011;21813;49.686;21.766;2023-02-28T15:21:06;18.02;;;9.65;;
35225;SDS011;21813;49.686;21.766;2023-02-28T15:23:37;15.68;;;9.20;;
35225;SDS011;21813;49.686;21.766;2023-02-28T15:26:09;17.42;;;9.60;;
35225;SDS011;21813;49.686;21.766;2023-02-28T15:28:40;18.35;;;9.35;;
35225;SDS011;21813;49.686;21.766;2023-02-28T15:31:18;14.05;;;9.55;;
35225;SDS011;21813;49.686;21.766;2023-02-28T15:34:06;14.32;;;9.20;;
35225;SDS011;21813;49.686;21.766;2023-02-28T15:36:33;22.67;;;12.38;;
35225;SDS011;21813;49.686;21.766;2023-02-28T15:39:03;24.35;;;13.18;;
35225;SDS011;21813;49.686;21.766;2023-02-28T15:47:01;22.60;;;12.60;;
35225;SDS011;21813;49.686;21.766;2023-02-28T15:49:44;21.00;;;11.82;;
35225;SDS011;21813;49.686;21.766;2023-02-28T15:52:17;22.30;;;11.82;;
35225;SDS011;21813;49.686;21.766;2023-02-28T15:54:49;19.15;;;11.48;;
35225;SDS011;21813;49.686;21.766;2023-02-28T15:57:25;33.25;;;17.25;;
35225;SDS011;21813;49.686;21.766;2023-02-28T15:59:55;26.40;;;16.20;;
35225;SDS011;21813;49.686;21.766;2023-02-28T16:02:35;39.83;;;18.77;;
35225;SDS011;21813;49.686;21.766;2023-02-28T16:07:28;31.13;;;14.45;;
35225;SDS011;21813;49.686;21.766;2023-02-28T16:09:54;26.27;;;14.70;;
35225;SDS011;21813;49.686;21.766;2023-02-28T16:12:25;30.65;;;15.55;;
35225;SDS011;21813;49.686;21.766;2023-02-28T16:14:53;22.55;;;13.75;;
35225;SDS011;21813;49.686;21.766;2023-02-28T16:17:22;24.05;;;14.63;;
35225;SDS011;21813;49.686;21.766;2023-02-28T16:19:50;27.45;;;14.38;;
35225;SDS011;21813;49.686;21.766;2023-02-28T16:22:16;31.40;;;14.88;;
35225;SDS011;21813;49.686;21.766;2023-02-28T16:24:42;29.25;;;13.95;;
35225;SDS011;21813;49.686;21.766;2023-02-28T16:27:11;24.38;;;14.55;;
35225;SDS011;21813;49.686;21.766;2023-02-28T16:29:41;26.88;;;13.75;;
35225;SDS011;21813;49.686;21.766;2023-02-28T16:32:10;22.55;;;12.90;;
35225;SDS011;21813;49.686;21.766;2023-02-28T16:34:39;23.75;;;13.45;;
35225;SDS011;21813;49.686;21.766;2023-02-28T16:37:09;27.30;;;15.52;;
35225;SDS011;21813;49.686;21.766;2023-02-28T16:39:45;26.73;;;14.95;;
35225;SDS011;21813;49.686;21.766;2023-02-28T16:42:20;28.05;;;14.77;;
35225;SDS011;21813;49.686;21.766;2023-02-28T16:44:54;36.75;;;17.63;;
35225;SDS011;21813;49.686;21.766;2023-02-28T16:47:21;30.88;;;16.73;;
35225;SDS011;21813;49.686;21.766;2023-02-28T16:49:47;31.02;;;16.20;;
35225;SDS011;21813;49.686;21.766;2023-02-28T16:52:13;27.45;;;15.30;;
35225;SDS011;21813;49.686;21.766;2023-02-28T16:54:40;30.40;;;17.27;;
35225;SDS011;21813;49.686;21.766;2023-02-28T16:57:11;39.33;;;20.23;;
35225;SDS011;21813;49.686;21.766;2023-02-28T16:59:46;28.63;;;17.08;;
35225;SDS011;21813;49.686;21.766;2023-02-28T17:02:12;32.72;;;17.05;;
35225;SDS011;21813;49.686;21.766;2023-02-28T17:04:40;31.35;;;17.25;;
35225;SDS011;21813;49.686;21.766;2023-02-28T17:07:10;32.15;;;17.38;;
35225;SDS011;21813;49.686;21.766;2023-02-28T17:09:38;29.42;;;18.08;;
35225;SDS011;21813;49.686;21.766;2023-02-28T17:12:07;32.78;;;18.73;;
35225;SDS011;21813;49.686;21.766;2023-02-28T17:14:33;63.20;;;32.05;;
35225;SDS011;21813;49.686;21.766;2023-02-28T17:17:00;70.57;;;33.42;;
35225;SDS011;21813;49.686;21.766;2023-02-28T17:19:25;41.20;;;22.80;;
35225;SDS011;21813;49.686;21.766;2023-02-28T17:21:53;155.52;;;73.63;;
35225;SDS011;21813;49.686;21.766;2023-02-28T17:24:18;141.88;;;63.78;;
35225;SDS011;21813;49.686;21.766;2023-02-28T17:26:45;53.10;;;28.98;;
35225;SDS011;21813;49.686;21.766;2023-02-28T17:29:17;40.10;;;23.25;;
35225;SDS011;21813;49.686;21.766;2023-02-28T17:31:45;42.40;;;22.67;;
35225;SDS011;21813;49.686;21.766;2023-02-28T17:34:12;46.35;;;24.60;;
35225;SDS011;21813;49.686;21.766;2023-02-28T17:36:44;37.40;;;20.50;;
35225;SDS011;21813;49.686;21.766;2023-02-28T17:39:11;46.00;;;25.60;;
35225;SDS011;21813;49.686;21.766;2023-02-28T17:45:27;87.93;;;44.03;;
35225;SDS011;21813;49.686;21.766;2023-02-28T17:47:56;59.13;;;31.58;;
35225;SDS011;21813;49.686;21.766;2023-02-28T17:50:42;72.50;;;33.42;;
35225;SDS011;21813;49.686;21.766;2023-02-28T17:56:52;78.85;;;34.90;;
35225;SDS011;21813;49.686;21.766;2023-02-28T17:59:18;84.80;;;41.15;;
35225;SDS011;21813;49.686;21.766;2023-02-28T18:01:44;87.05;;;44.17;;
35225;SDS011;21813;49.686;21.766;2023-02-28T18:04:09;93.68;;;47.25;;
35225;SDS011;21813;49.686;21.766;2023-02-28T18:06:37;81.20;;;42.13;;
35225;SDS011;21813;49.686;21.766;2023-02-28T18:09:12;83.13;;;40.67;;
35225;SDS011;21813;49.686;21.766;2023-02-28T18:11:39;88.88;;;44.38;;
35225;SDS011;21813;49.686;21.766;2023-02-28T18:14:10;85.35;;;41.88;;
35225;SDS011;21813;49.686;21.766;2023-02-28T18:16:36;77.43;;;39.22;;
35225;SDS011;21813;49.686;21.766;2023-02-28T18:19:03;87.65;;;43.90;;
35225;SDS011;21813;49.686;21.766;2023-02-28T18:21:29;74.45;;;34.95;;
35225;SDS011;21813;49.686;21.766;2023-02-28T18:23:55;71.43;;;36.10;;
35225;SDS011;21813;49.686;21.766;2023-02-28T18:26:21;77.18;;;35.90;;
35225;SDS011;21813;49.686;21.766;2023-02-28T18:28:47;88.57;;;43.15;;
35225;SDS011;21813;49.686;21.766;2023-02-28T18:31:16;86.85;;;41.10;;
35225;SDS011;21813;49.686;21.766;2023-02-28T18:33:44;89.05;;;41.25;;
35225;SDS011;21813;49.686;21.766;2023-02-28T18:36:12;103.97;;;44.80;;
35225;SDS011;21813;49.686;21.766;2023-02-28T18:38:38;110.70;;;45.70;;
35225;SDS011;21813;49.686;21.766;2023-02-28T18:41:05;93.15;;;42.85;;